Terminal Aerodrome Forecast
Issued by NWS

Home | Current Version | Previous Version | Text Only | Print | Product List | Glossary On
Versions: 1 2 3 4 5 6 7 8 9 10 11 12
000
FTUS44 KSJT 261123
TAFBBD
TAF
KBBD 261123Z 2612/2712 16010KT P6SM SCT025 BKN100
     FM261400 17008G15KT P6SM OVC025
     FM261800 18010G18KT P6SM BKN050
     FM262200 17012G20KT P6SM SCT060
     FM270200 15010KT P6SM VCTS BKN050CB
      TEMPO 2705/2709 3SM -TSRA BKN035CB
      AMD NOT SKED=

USA.gov is the U.S. government's official web portal to all federal, state and local government web resources and services.